createdAt,value
2022-08-03T00:00:26.372Z,3.20
2022-08-03T00:01:01.472Z,2.40
2022-08-03T00:01:36.674Z,2.40
2022-08-03T00:02:11.915Z,1.60
2022-08-03T00:02:46.966Z,1.60
2022-08-03T00:03:21.966Z,2.40
2022-08-03T00:03:57.235Z,2.40
2022-08-03T00:04:34.098Z,3.20
2022-08-03T00:05:07.361Z,3.20
2022-08-03T00:06:03.766Z,4.00
2022-08-03T00:06:17.902Z,4.00
2022-08-03T00:06:53.298Z,4.80
2022-08-03T00:07:28.417Z,3.20
2022-08-03T00:08:03.532Z,2.40
2022-08-03T00:08:40.349Z,2.40
2022-08-03T00:09:14.248Z,3.20
2022-08-03T00:09:49.470Z,4.00
2022-08-03T00:10:24.685Z,2.40
2022-08-03T00:10:59.980Z,1.60
2022-08-03T00:11:35.082Z,2.40
2022-08-03T00:12:10.673Z,3.20
2022-08-03T00:12:45.893Z,3.20
2022-08-03T00:13:21.199Z,2.40
2022-08-03T00:13:56.521Z,4.00
2022-08-03T00:14:31.539Z,3.20
2022-08-03T00:15:11.273Z,3.20
2022-08-03T00:15:41.652Z,2.40
2022-08-03T00:16:17.057Z,3.20
2022-08-03T00:16:52.285Z,4.80
2022-08-03T00:17:27.478Z,4.00
2022-08-03T00:18:02.595Z,3.20
2022-08-03T00:18:37.986Z,4.80
2022-08-03T00:19:13.209Z,4.80
2022-08-03T00:19:48.649Z,3.20
2022-08-03T00:20:24.171Z,4.80
2022-08-03T00:20:59.281Z,4.80
2022-08-03T00:21:34.578Z,4.00
2022-08-03T00:22:10.174Z,4.00
2022-08-03T00:22:45.175Z,3.20
2022-08-03T00:23:20.301Z,2.40
2022-08-03T00:23:55.718Z,2.40
2022-08-03T00:24:31.128Z,3.20
2022-08-03T00:25:06.245Z,3.20
2022-08-03T00:25:41.642Z,2.40
2022-08-03T00:26:16.547Z,2.40
2022-08-03T00:26:51.857Z,4.00
2022-08-03T00:27:27.173Z,2.40
2022-08-03T00:28:02.463Z,2.40
2022-08-03T00:28:37.953Z,1.60
2022-08-03T00:29:13.188Z,1.60
2022-08-03T00:29:59.815Z,4.00
2022-08-03T00:30:24.009Z,4.80
2022-08-03T00:30:58.995Z,4.00
2022-08-03T00:31:51.449Z,4.00
2022-08-03T00:32:10.945Z,3.20
2022-08-03T00:32:45.294Z,4.00
2022-08-03T00:33:20.262Z,4.00
2022-08-03T00:33:57.942Z,3.20
2022-08-03T00:34:50.890Z,3.20
2022-08-03T00:35:05.716Z,4.80
2022-08-03T00:35:50.701Z,3.20
2022-08-03T00:36:16.129Z,4.00
2022-08-03T00:36:51.340Z,4.80
2022-08-03T00:37:41.379Z,4.80
2022-08-03T00:38:02.137Z,4.80
2022-08-03T00:38:37.445Z,4.80
2022-08-03T00:39:12.563Z,4.00
2022-08-03T00:39:48.213Z,4.00
2022-08-03T00:40:23.280Z,4.00
2022-08-03T00:40:58.904Z,4.80
2022-08-03T00:41:33.881Z,4.80
2022-08-03T00:42:09.108Z,4.80
2022-08-03T00:42:44.383Z,4.00
2022-08-03T00:43:19.783Z,4.80
2022-08-03T00:43:55.201Z,4.00
2022-08-03T00:44:30.488Z,3.20
2022-08-03T00:45:05.693Z,4.80
2022-08-03T00:45:40.792Z,4.00
2022-08-03T00:46:20.810Z,4.00
2022-08-03T00:46:51.250Z,5.60
2022-08-03T00:47:26.644Z,4.00
2022-08-03T00:48:01.959Z,2.40
2022-08-03T00:48:37.168Z,4.00
2022-08-03T00:49:12.540Z,3.20
2022-08-03T00:49:47.332Z,1.60
2022-08-03T00:50:22.650Z,1.60
2022-08-03T00:50:57.776Z,1.60
2022-08-03T00:51:33.272Z,1.60
2022-08-03T00:52:17.475Z,1.60
2022-08-03T00:52:44.096Z,2.40
2022-08-03T00:53:19.405Z,1.60
2022-08-03T00:53:54.520Z,3.20
2022-08-03T00:54:29.849Z,1.60
2022-08-03T00:55:05.081Z,2.40
2022-08-03T00:55:40.586Z,3.20
2022-08-03T00:56:15.910Z,4.00
2022-08-03T00:57:00.165Z,3.20
2022-08-03T00:57:26.237Z,5.60
2022-08-03T00:58:01.821Z,2.40
2022-08-03T00:58:37.022Z,4.80
2022-08-03T00:59:12.137Z,5.60
2022-08-03T00:59:47.460Z,4.80
2022-08-03T01:00:22.762Z,4.00
2022-08-03T01:00:58.337Z,2.40
2022-08-03T01:01:33.621Z,4.80
2022-08-03T01:02:09.191Z,4.00
2022-08-03T01:02:44.300Z,2.40
2022-08-03T01:03:19.784Z,3.20
2022-08-03T01:03:55.140Z,4.00
2022-08-03T01:04:30.575Z,3.20
2022-08-03T01:05:05.869Z,1.60
2022-08-03T01:05:41.217Z,2.40
2022-08-03T01:06:16.114Z,4.00
2022-08-03T01:06:51.232Z,3.20
2022-08-03T01:07:26.529Z,3.20
2022-08-03T01:08:01.770Z,4.00
2022-08-03T01:08:37.382Z,3.20
2022-08-03T01:09:12.589Z,1.60
2022-08-03T01:09:48.009Z,2.40
2022-08-03T01:10:23.320Z,1.60
2022-08-03T01:10:58.249Z,3.20
2022-08-03T01:11:33.258Z,4.00
2022-08-03T01:12:08.395Z,5.60
2022-08-03T01:12:43.625Z,4.00
2022-08-03T01:14:00.326Z,4.00
2022-08-03T01:14:01.243Z,3.20
2022-08-03T01:14:29.473Z,2.40
2022-08-03T01:15:05.006Z,2.40
2022-08-03T01:15:40.616Z,4.00
2022-08-03T01:16:15.537Z,4.00
2022-08-03T01:16:50.982Z,4.00
2022-08-03T01:17:25.909Z,4.00
2022-08-03T01:18:01.133Z,3.20
2022-08-03T01:18:36.360Z,3.20
2022-08-03T01:19:11.687Z,3.20
2022-08-03T01:19:47.005Z,3.20
2022-08-03T01:20:22.021Z,2.40
2022-08-03T01:20:57.344Z,3.20
2022-08-03T01:21:32.754Z,3.20
2022-08-03T01:22:08.244Z,2.40
2022-08-03T01:22:43.576Z,3.20
2022-08-03T01:23:18.813Z,2.40
2022-08-03T01:23:53.908Z,2.40
2022-08-03T01:24:29.528Z,3.20
2022-08-03T01:25:04.764Z,5.60
2022-08-03T01:25:39.860Z,2.40
2022-08-03T01:26:15.284Z,2.40
2022-08-03T01:26:50.501Z,2.40
2022-08-03T01:27:25.724Z,1.60
2022-08-03T01:28:01.218Z,2.40
2022-08-03T01:28:36.350Z,1.60
2022-08-03T01:29:11.942Z,2.40
2022-08-03T01:29:47.153Z,3.20
2022-08-03T01:30:22.263Z,3.20
2022-08-03T01:30:57.163Z,2.40
2022-08-03T01:31:32.293Z,1.60
2022-08-03T01:32:54.594Z,0.80
2022-08-03T01:33:00.250Z,2.40
2022-08-03T01:33:17.923Z,0.00
2022-08-03T01:33:53.027Z,0.00
2022-08-03T01:34:28.535Z,0.00
2022-08-03T01:35:03.638Z,0.80
2022-08-03T01:35:39.168Z,0.80
2022-08-03T01:36:14.243Z,0.00
2022-08-03T01:36:49.842Z,0.00
2022-08-03T01:37:25.158Z,0.00
2022-08-03T01:38:00.580Z,0.00
2022-08-03T01:38:35.906Z,0.00
2022-08-03T01:39:11.215Z,0.00
2022-08-03T01:39:46.641Z,0.00
2022-08-03T01:40:21.962Z,0.00
2022-08-03T01:40:57.076Z,0.00
2022-08-03T01:41:32.177Z,1.60
2022-08-03T01:42:07.379Z,4.00
2022-08-03T01:42:42.687Z,2.40
2022-08-03T01:43:58.905Z,2.40
2022-08-03T01:43:59.008Z,2.40
2022-08-03T01:44:30.904Z,1.60
2022-08-03T01:45:03.626Z,4.00
2022-08-03T01:45:38.738Z,3.20
2022-08-03T01:46:13.936Z,2.40
2022-08-03T01:46:49.122Z,2.40
2022-08-03T01:47:24.286Z,2.40
2022-08-03T01:47:59.701Z,4.00
2022-08-03T01:48:34.922Z,2.40
2022-08-03T01:49:10.281Z,3.20
2022-08-03T01:49:45.579Z,3.20
2022-08-03T01:50:20.560Z,1.60
2022-08-03T01:50:55.894Z,2.40
2022-08-03T01:52:03.301Z,2.40
2022-08-03T01:52:06.422Z,2.40
2022-08-03T01:52:41.661Z,2.40
2022-08-03T01:53:16.730Z,2.40
2022-08-03T01:53:51.985Z,3.20
2022-08-03T01:54:27.310Z,4.00
2022-08-03T01:55:02.433Z,3.20
2022-08-03T01:55:37.739Z,4.00
2022-08-03T01:56:12.948Z,2.40
2022-08-03T01:56:48.489Z,3.20
2022-08-03T01:57:23.515Z,2.40
2022-08-03T01:58:04.904Z,3.20
2022-08-03T01:58:34.233Z,3.20
2022-08-03T01:59:09.371Z,2.40
2022-08-03T01:59:44.583Z,4.00
2022-08-03T02:00:19.789Z,2.40
2022-08-03T02:00:54.935Z,1.60
2022-08-03T02:02:16.116Z,3.20
2022-08-03T02:02:28.107Z,2.40
2022-08-03T02:02:41.157Z,2.40
2022-08-03T02:03:16.173Z,2.40
2022-08-03T02:03:59.995Z,2.40
2022-08-03T02:04:26.415Z,1.60
2022-08-03T02:05:01.520Z,2.40
2022-08-03T02:05:36.847Z,4.00
2022-08-03T02:06:59.841Z,2.40
2022-08-03T02:06:59.958Z,3.20
2022-08-03T02:07:22.453Z,2.40
2022-08-03T02:07:57.677Z,3.20
2022-08-03T02:08:33.001Z,2.40
2022-08-03T02:09:08.419Z,2.40
2022-08-03T02:09:43.646Z,4.00
2022-08-03T02:10:34.285Z,4.00
2022-08-03T02:10:54.074Z,2.40
2022-08-03T02:11:29.281Z,3.20
2022-08-03T02:12:04.690Z,3.20
2022-08-03T02:12:40.225Z,4.00
2022-08-03T02:13:15.631Z,3.20
2022-08-03T02:13:51.270Z,3.20
2022-08-03T02:14:26.183Z,3.20
2022-08-03T02:15:01.289Z,4.80
2022-08-03T02:15:36.604Z,2.40
2022-08-03T02:16:11.824Z,6.40
2022-08-03T02:16:47.056Z,4.80
2022-08-03T02:17:39.210Z,3.20
2022-08-03T02:17:57.814Z,3.20
2022-08-03T02:18:33.223Z,3.20
2022-08-03T02:19:08.272Z,2.40
2022-08-03T02:19:43.397Z,2.40
2022-08-03T02:20:18.907Z,4.00
2022-08-03T02:20:54.334Z,3.20
2022-08-03T02:21:55.606Z,2.40
2022-08-03T02:22:04.780Z,4.00
2022-08-03T02:22:40.276Z,3.20
2022-08-03T02:23:15.579Z,2.40
2022-08-03T02:23:50.749Z,3.20
2022-08-03T02:24:25.861Z,3.20
2022-08-03T02:25:00.973Z,2.40
2022-08-03T02:25:36.181Z,3.20
2022-08-03T02:26:11.308Z,4.00
2022-08-03T02:26:46.546Z,3.20
2022-08-03T02:27:21.523Z,2.40
2022-08-03T02:27:57.033Z,2.40
2022-08-03T02:28:32.142Z,2.40
2022-08-03T02:29:07.201Z,2.40
2022-08-03T02:29:42.615Z,4.80
2022-08-03T02:30:17.953Z,4.80
2022-08-03T02:30:53.854Z,4.00
2022-08-03T02:31:28.815Z,4.00
2022-08-03T02:32:04.243Z,3.20
2022-08-03T02:32:39.450Z,5.60
2022-08-03T02:33:14.653Z,3.20
2022-08-03T02:33:49.769Z,4.80
2022-08-03T02:34:25.090Z,4.00
2022-08-03T02:35:00.332Z,4.80
2022-08-03T02:35:35.338Z,2.40
2022-08-03T02:36:10.592Z,5.60
2022-08-03T02:36:45.911Z,4.80
2022-08-03T02:37:21.543Z,4.80
2022-08-03T02:37:56.672Z,4.80
2022-08-03T02:38:31.977Z,3.20
2022-08-03T02:39:07.216Z,2.40
2022-08-03T02:39:42.246Z,4.00
2022-08-03T02:40:17.075Z,4.00
2022-08-03T02:40:52.193Z,4.80
2022-08-03T02:41:27.308Z,4.80
2022-08-03T02:42:02.516Z,4.80
2022-08-03T02:42:37.742Z,4.00
2022-08-03T02:43:13.049Z,4.00
2022-08-03T02:44:05.889Z,6.40
2022-08-03T02:44:23.387Z,5.60
2022-08-03T02:44:58.697Z,4.00
2022-08-03T02:45:34.421Z,3.20
2022-08-03T02:46:09.847Z,4.80
2022-08-03T02:46:44.949Z,4.00
2022-08-03T02:47:20.572Z,4.00
2022-08-03T02:47:55.892Z,4.00
2022-08-03T02:48:30.990Z,3.20
2022-08-03T02:49:41.397Z,3.20
2022-08-03T02:49:50.494Z,4.80
2022-08-03T02:50:17.217Z,3.20
2022-08-03T02:50:52.553Z,4.80
2022-08-03T02:51:27.862Z,3.20
2022-08-03T02:52:03.093Z,3.20
2022-08-03T02:52:38.318Z,4.00
2022-08-03T02:53:13.551Z,7.20
2022-08-03T02:53:48.989Z,4.00
2022-08-03T02:54:24.199Z,3.20
2022-08-03T02:54:59.723Z,2.40
2022-08-03T02:55:35.021Z,4.80
2022-08-03T02:56:10.231Z,3.20
2022-08-03T02:56:45.268Z,2.40
2022-08-03T02:57:20.584Z,3.20
2022-08-03T02:57:55.588Z,3.20
2022-08-03T02:58:30.816Z,2.40
2022-08-03T02:59:05.939Z,3.20
2022-08-03T02:59:41.170Z,2.40
2022-08-03T03:00:19.678Z,1.60
2022-08-03T03:00:51.691Z,1.60
2022-08-03T03:01:26.769Z,1.60
2022-08-03T03:02:02.049Z,2.40
2022-08-03T03:02:37.474Z,2.40
2022-08-03T03:03:12.793Z,1.60
2022-08-03T03:03:47.947Z,2.40
2022-08-03T03:04:25.706Z,2.40
2022-08-03T03:05:50.808Z,1.60
2022-08-03T03:05:52.602Z,2.40
2022-08-03T03:06:08.415Z,2.40
2022-08-03T03:06:43.730Z,3.20
2022-08-03T03:07:19.034Z,1.60
2022-08-03T03:07:54.154Z,3.20
2022-08-03T03:08:29.412Z,3.20
2022-08-03T03:09:04.818Z,2.40
2022-08-03T03:09:43.114Z,3.20
2022-08-03T03:10:15.260Z,2.40
2022-08-03T03:10:55.351Z,3.20
2022-08-03T03:11:25.721Z,2.40
2022-08-03T03:12:01.039Z,1.60
2022-08-03T03:12:36.568Z,4.00
2022-08-03T03:13:11.771Z,4.00
2022-08-03T03:13:47.104Z,3.20
2022-08-03T03:14:33.159Z,4.80
2022-08-03T03:14:57.734Z,4.00
2022-08-03T03:15:33.149Z,4.00
2022-08-03T03:16:08.459Z,3.20
2022-08-03T03:16:43.487Z,3.20
2022-08-03T03:17:18.783Z,2.40
2022-08-03T03:17:53.899Z,3.20
2022-08-03T03:18:29.144Z,4.00
2022-08-03T03:19:04.357Z,3.20
2022-08-03T03:19:39.484Z,2.40
2022-08-03T03:20:14.700Z,2.40
2022-08-03T03:20:50.117Z,3.20
2022-08-03T03:21:25.353Z,3.20
2022-08-03T03:22:00.856Z,3.20
2022-08-03T03:22:36.273Z,2.40
2022-08-03T03:23:11.467Z,2.40
2022-08-03T03:23:46.824Z,3.20
2022-08-03T03:24:22.212Z,3.20
2022-08-03T03:24:57.430Z,3.20
2022-08-03T03:25:32.752Z,2.40
2022-08-03T03:26:08.166Z,1.60
2022-08-03T03:26:43.611Z,2.40
2022-08-03T03:27:18.925Z,2.40
2022-08-03T03:27:54.146Z,1.60
2022-08-03T03:28:29.276Z,1.60
2022-08-03T03:29:04.391Z,2.40
2022-08-03T03:29:39.729Z,2.40
2022-08-03T03:30:14.932Z,3.20
2022-08-03T03:30:53.116Z,1.60
2022-08-03T03:31:25.583Z,2.40
2022-08-03T03:32:01.283Z,2.40
2022-08-03T03:32:36.142Z,1.60
2022-08-03T03:33:11.268Z,2.40
2022-08-03T03:33:46.881Z,1.60
2022-08-03T03:34:22.196Z,3.20
2022-08-03T03:34:57.729Z,3.20
2022-08-03T03:35:38.869Z,3.20
2022-08-03T03:36:07.771Z,3.20
2022-08-03T03:36:43.065Z,3.20
2022-08-03T03:37:18.293Z,4.80
2022-08-03T03:37:53.594Z,1.60
2022-08-03T03:38:28.825Z,2.40
2022-08-03T03:39:15.731Z,2.40
2022-08-03T03:39:39.268Z,3.20
2022-08-03T03:40:14.428Z,2.40
2022-08-03T03:40:49.622Z,2.40
2022-08-03T03:41:24.664Z,2.40
2022-08-03T03:41:59.862Z,2.40
2022-08-03T03:42:34.996Z,4.00
2022-08-03T03:43:10.410Z,3.20
2022-08-03T03:43:45.737Z,3.20
2022-08-03T03:44:20.861Z,3.20
2022-08-03T03:44:55.872Z,4.00
2022-08-03T03:45:31.108Z,3.20
2022-08-03T03:46:06.323Z,2.40
2022-08-03T03:46:41.925Z,4.00
2022-08-03T03:47:17.543Z,2.40
2022-08-03T03:47:53.150Z,3.20
2022-08-03T03:48:28.395Z,3.20
2022-08-03T03:49:03.666Z,2.40
2022-08-03T03:49:39.070Z,3.20
2022-08-03T03:50:14.125Z,2.40
2022-08-03T03:50:49.737Z,3.20
2022-08-03T03:51:25.275Z,3.20
2022-08-03T03:52:00.680Z,5.60
2022-08-03T03:52:36.099Z,4.80
2022-08-03T03:53:11.127Z,3.20
2022-08-03T03:53:46.546Z,4.00
2022-08-03T03:54:21.669Z,3.20
2022-08-03T03:55:00.642Z,4.00
2022-08-03T03:55:32.067Z,2.40
2022-08-03T03:56:07.591Z,4.00
2022-08-03T03:56:42.996Z,6.40
2022-08-03T03:57:18.436Z,3.20
2022-08-03T03:57:53.840Z,3.20
2022-08-03T03:58:29.148Z,4.80
2022-08-03T03:59:04.301Z,4.80
2022-08-03T03:59:39.618Z,3.20
2022-08-03T04:00:15.057Z,6.40
2022-08-03T04:00:50.302Z,4.00
2022-08-03T04:01:25.802Z,4.00
2022-08-03T04:02:01.099Z,4.00
2022-08-03T04:02:36.224Z,4.00
2022-08-03T04:03:11.357Z,3.20
2022-08-03T04:03:46.485Z,2.40
2022-08-03T04:04:21.704Z,3.20
2022-08-03T04:04:57.125Z,2.40
2022-08-03T04:05:32.331Z,3.20
2022-08-03T04:06:07.549Z,3.20
2022-08-03T04:06:42.946Z,2.40
2022-08-03T04:07:18.157Z,2.40
2022-08-03T04:07:53.392Z,2.40
2022-08-03T04:08:28.525Z,2.40
2022-08-03T04:09:03.744Z,4.80
2022-08-03T04:09:38.875Z,4.00
2022-08-03T04:10:14.831Z,4.80
2022-08-03T04:10:49.485Z,4.00
2022-08-03T04:11:30.023Z,3.20
2022-08-03T04:12:00.046Z,4.80
2022-08-03T04:12:35.368Z,4.80
2022-08-03T04:13:10.579Z,3.20
2022-08-03T04:13:46.134Z,4.00
2022-08-03T04:14:21.271Z,4.00
2022-08-03T04:14:56.483Z,5.60
2022-08-03T04:15:31.818Z,3.20
2022-08-03T04:16:06.925Z,4.00
2022-08-03T04:16:43.835Z,4.00
2022-08-03T04:17:17.344Z,4.80
2022-08-03T04:17:52.770Z,4.00
2022-08-03T04:18:28.084Z,4.80
2022-08-03T04:19:03.425Z,5.60
2022-08-03T04:19:38.339Z,6.40
2022-08-03T04:20:13.345Z,5.60
2022-08-03T04:20:48.791Z,5.60
2022-08-03T04:21:23.968Z,5.60
2022-08-03T04:21:59.493Z,4.00
2022-08-03T04:22:34.746Z,4.00
2022-08-03T04:23:13.528Z,2.40
2022-08-03T04:23:45.102Z,5.60
2022-08-03T04:24:20.407Z,4.80
2022-08-03T04:24:55.519Z,6.41
2022-08-03T04:25:31.030Z,4.00
2022-08-03T04:26:06.352Z,4.80
2022-08-03T04:26:42.091Z,4.00
2022-08-03T04:27:17.407Z,4.80
2022-08-03T04:28:08.174Z,3.20
2022-08-03T04:28:29.383Z,4.80
2022-08-03T04:29:02.728Z,4.80
2022-08-03T04:29:38.686Z,4.80
2022-08-03T04:30:13.236Z,4.00
2022-08-03T04:30:48.460Z,4.80
2022-08-03T04:31:23.684Z,2.40
2022-08-03T04:31:59.003Z,4.00
2022-08-03T04:32:34.059Z,2.40
2022-08-03T04:33:09.352Z,2.40
2022-08-03T04:33:44.611Z,4.00
2022-08-03T04:34:19.906Z,2.40
2022-08-03T04:34:55.230Z,2.40
2022-08-03T04:36:01.861Z,2.40
2022-08-03T04:36:05.546Z,3.20
2022-08-03T04:36:40.573Z,4.80
2022-08-03T04:37:15.575Z,4.80
2022-08-03T04:37:50.600Z,4.00
2022-08-03T04:38:26.017Z,3.20
2022-08-03T04:39:01.267Z,3.20
2022-08-03T04:39:36.468Z,4.00
2022-08-03T04:40:11.782Z,4.00
2022-08-03T04:40:46.900Z,4.80
2022-08-03T04:41:22.194Z,4.00
2022-08-03T04:42:04.412Z,2.40
2022-08-03T04:42:32.871Z,5.60
2022-08-03T04:43:15.122Z,4.00
2022-08-03T04:43:50.907Z,6.40
2022-08-03T04:44:28.409Z,4.00
2022-08-03T04:45:01.887Z,6.40
2022-08-03T04:45:36.551Z,4.00
2022-08-03T04:46:11.867Z,5.60
2022-08-03T04:46:52.504Z,4.00
2022-08-03T04:47:22.390Z,3.20
2022-08-03T04:47:57.809Z,4.00
2022-08-03T04:48:33.006Z,3.20
2022-08-03T04:49:08.532Z,3.20
2022-08-03T04:49:43.735Z,2.40
2022-08-03T04:50:21.598Z,1.60
2022-08-03T04:50:54.041Z,2.40
2022-08-03T04:51:29.555Z,6.40
2022-08-03T04:52:04.913Z,4.00
2022-08-03T04:52:40.308Z,4.00
2022-08-03T04:53:15.731Z,3.20
2022-08-03T04:53:50.971Z,2.40
2022-08-03T04:54:26.197Z,2.40
2022-08-03T04:55:01.514Z,3.20
2022-08-03T04:55:36.826Z,2.40
2022-08-03T04:56:11.946Z,2.40
2022-08-03T04:56:47.359Z,4.80
2022-08-03T04:57:23.583Z,4.00
2022-08-03T04:57:58.121Z,4.00
2022-08-03T04:58:33.524Z,5.60
2022-08-03T04:59:08.724Z,3.20
2022-08-03T04:59:43.854Z,4.00
2022-08-03T05:00:19.085Z,4.00
2022-08-03T05:00:54.534Z,3.20
2022-08-03T05:01:29.778Z,2.40
2022-08-03T05:02:04.931Z,2.40
2022-08-03T05:02:39.956Z,4.00
2022-08-03T05:03:23.987Z,4.80
2022-08-03T05:03:50.721Z,1.60
2022-08-03T05:04:25.832Z,3.20
2022-08-03T05:05:01.134Z,4.00
2022-08-03T05:05:49.918Z,2.40
2022-08-03T05:06:11.835Z,2.40
2022-08-03T05:06:48.066Z,4.80
2022-08-03T05:07:24.882Z,2.40
2022-08-03T05:07:57.748Z,4.80
2022-08-03T05:08:32.848Z,4.80
2022-08-03T05:09:07.980Z,4.00
2022-08-03T05:09:50.420Z,1.60
2022-08-03T05:10:18.407Z,1.60
2022-08-03T05:10:53.636Z,1.60
2022-08-03T05:11:28.857Z,6.40
2022-08-03T05:12:04.186Z,4.00
2022-08-03T05:12:39.179Z,4.80
2022-08-03T05:13:14.593Z,4.80
2022-08-03T05:13:49.913Z,4.80
2022-08-03T05:14:28.268Z,3.20
2022-08-03T05:15:00.832Z,3.20
2022-08-03T05:15:36.123Z,6.40
2022-08-03T05:16:11.148Z,6.40
2022-08-03T05:16:46.477Z,4.00
2022-08-03T05:17:21.883Z,4.80
2022-08-03T05:17:57.110Z,4.80
2022-08-03T05:18:32.128Z,4.00
2022-08-03T05:19:07.490Z,4.80
2022-08-03T05:19:42.784Z,4.80
2022-08-03T05:20:19.038Z,2.40
2022-08-03T05:20:53.336Z,4.00
2022-08-03T05:21:41.654Z,3.20
2022-08-03T05:22:04.055Z,3.20
2022-08-03T05:22:39.093Z,2.40
2022-08-03T05:23:14.455Z,4.00
2022-08-03T05:23:49.794Z,5.60
2022-08-03T05:24:25.131Z,4.00
2022-08-03T05:25:00.465Z,4.80
2022-08-03T05:25:36.071Z,6.40
2022-08-03T05:26:11.295Z,4.80
2022-08-03T05:26:46.406Z,4.80
2022-08-03T05:27:21.627Z,5.60
2022-08-03T05:27:56.952Z,4.80
2022-08-03T05:28:32.053Z,5.60
2022-08-03T05:29:07.282Z,4.80
2022-08-03T05:29:42.504Z,4.80
2022-08-03T05:30:26.788Z,3.20
2022-08-03T05:30:52.959Z,1.60
2022-08-03T05:31:28.170Z,5.60
2022-08-03T05:32:08.076Z,4.00
2022-08-03T05:32:38.289Z,4.80
2022-08-03T05:33:13.627Z,4.80
2022-08-03T05:33:48.931Z,4.00
2022-08-03T05:34:24.183Z,2.40
2022-08-03T05:34:59.708Z,1.60
2022-08-03T05:36:01.459Z,2.40
2022-08-03T05:36:10.423Z,3.20
2022-08-03T05:36:45.438Z,2.40
2022-08-03T05:37:20.655Z,2.40
2022-08-03T05:37:55.885Z,1.60
2022-08-03T05:38:34.350Z,2.40
2022-08-03T05:39:06.353Z,2.40
2022-08-03T05:39:41.264Z,2.40
2022-08-03T05:40:16.680Z,3.20
2022-08-03T05:40:57.176Z,3.20
2022-08-03T05:41:37.305Z,3.20
2022-08-03T05:42:02.342Z,3.20
2022-08-03T05:42:37.354Z,8.00
2022-08-03T05:43:12.764Z,7.20
2022-08-03T05:43:47.965Z,4.00
2022-08-03T05:44:23.415Z,3.20
2022-08-03T05:44:58.530Z,4.80
2022-08-03T05:45:33.642Z,4.80
2022-08-03T05:46:12.948Z,5.60
2022-08-03T05:46:44.585Z,4.80
2022-08-03T05:47:19.603Z,4.00
2022-08-03T05:47:55.212Z,4.00
2022-08-03T05:48:30.516Z,4.00
2022-08-03T05:49:05.898Z,5.60
2022-08-03T05:49:41.244Z,9.60
2022-08-03T05:50:16.403Z,8.80
2022-08-03T05:50:52.011Z,6.40
2022-08-03T05:51:27.136Z,5.60
2022-08-03T05:52:15.624Z,8.00
2022-08-03T05:52:37.647Z,5.60
2022-08-03T05:53:13.163Z,7.20
2022-08-03T05:53:48.769Z,8.00
2022-08-03T05:54:23.673Z,4.00
2022-08-03T05:54:59.015Z,6.40
2022-08-03T05:55:34.640Z,4.80
2022-08-03T05:56:13.786Z,6.41
2022-08-03T05:56:44.963Z,4.80
2022-08-03T05:57:20.161Z,6.40
2022-08-03T05:57:56.722Z,7.20
2022-08-03T05:58:30.988Z,12.01
2022-08-03T05:59:22.770Z,5.60
2022-08-03T05:59:55.772Z,6.40
2022-08-03T06:00:16.767Z,5.60
2022-08-03T06:00:51.952Z,4.80
2022-08-03T06:01:27.220Z,4.80
2022-08-03T06:02:02.540Z,3.20
2022-08-03T06:02:37.497Z,4.00
2022-08-03T06:03:12.614Z,3.20
2022-08-03T06:03:47.943Z,4.00
2022-08-03T06:04:23.160Z,3.20
2022-08-03T06:04:58.386Z,5.60
2022-08-03T06:05:33.706Z,3.20
2022-08-03T06:06:08.857Z,3.20
2022-08-03T06:06:44.156Z,1.60
2022-08-03T06:07:19.477Z,3.20
2022-08-03T06:07:54.799Z,2.40
2022-08-03T06:08:30.103Z,2.40
2022-08-03T06:09:05.119Z,4.00
2022-08-03T06:10:36.427Z,3.20
2022-08-03T06:10:37.408Z,4.80
2022-08-03T06:10:50.763Z,3.20
2022-08-03T06:11:26.077Z,3.20
2022-08-03T06:12:01.488Z,4.80
2022-08-03T06:12:36.706Z,2.40
2022-08-03T06:13:11.719Z,3.20
2022-08-03T06:13:46.930Z,7.20
2022-08-03T06:14:22.050Z,10.40
2022-08-03T06:14:57.090Z,7.20
2022-08-03T06:15:32.188Z,5.60
2022-08-03T06:16:07.407Z,4.00
2022-08-03T06:16:42.513Z,10.40
2022-08-03T06:17:17.929Z,5.60
2022-08-03T06:17:53.214Z,4.80
2022-08-03T06:18:28.537Z,4.80
2022-08-03T06:19:03.939Z,6.41
2022-08-03T06:19:39.161Z,5.60
2022-08-03T06:20:14.652Z,8.80
2022-08-03T06:20:50.363Z,10.40
2022-08-03T06:21:24.887Z,8.00
2022-08-03T06:22:00.099Z,8.80
2022-08-03T06:22:35.303Z,10.40
2022-08-03T06:23:15.907Z,8.00
2022-08-03T06:23:53.906Z,12.01
2022-08-03T06:24:21.286Z,7.20
2022-08-03T06:24:56.724Z,11.21
2022-08-03T06:25:32.319Z,8.80
2022-08-03T06:26:07.840Z,6.40
2022-08-03T06:26:42.856Z,8.80
2022-08-03T06:27:17.962Z,11.21
2022-08-03T06:27:53.280Z,6.40
2022-08-03T06:28:52.869Z,5.60
2022-08-03T06:29:04.061Z,6.40
2022-08-03T06:29:39.047Z,4.80
2022-08-03T06:30:18.059Z,8.80
2022-08-03T06:30:49.972Z,9.60
2022-08-03T06:31:24.981Z,8.80
2022-08-03T06:32:00.105Z,5.60
2022-08-03T06:32:35.636Z,8.00
2022-08-03T06:33:10.663Z,9.60
2022-08-03T06:34:30.571Z,6.40
2022-08-03T06:34:32.195Z,5.60
2022-08-03T06:34:56.753Z,8.00
2022-08-03T06:35:31.947Z,12.81
2022-08-03T06:36:07.168Z,9.60
2022-08-03T06:36:42.808Z,11.21
2022-08-03T06:37:17.926Z,13.61
2022-08-03T06:37:53.241Z,8.80
2022-08-03T06:38:28.637Z,11.21
2022-08-03T06:39:03.854Z,7.20
2022-08-03T06:39:38.984Z,9.60
2022-08-03T06:40:14.192Z,10.40
2022-08-03T06:40:49.408Z,13.61
2022-08-03T06:41:24.621Z,11.21
2022-08-03T06:42:00.540Z,11.21
2022-08-03T06:42:35.744Z,16.81
2022-08-03T06:43:12.689Z,16.81
2022-08-03T06:44:04.024Z,13.61
2022-08-03T06:44:22.380Z,16.81
2022-08-03T06:44:57.500Z,13.61
2022-08-03T06:45:32.596Z,13.61
2022-08-03T06:46:07.818Z,13.61
2022-08-03T06:46:43.235Z,12.01
2022-08-03T06:47:18.440Z,15.21
2022-08-03T06:47:53.569Z,8.80
2022-08-03T06:48:28.883Z,5.60
2022-08-03T06:49:04.780Z,7.20
2022-08-03T06:49:39.870Z,12.01
2022-08-03T06:50:17.905Z,12.81
2022-08-03T06:50:50.528Z,11.21
2022-08-03T06:52:05.155Z,9.60
2022-08-03T06:52:05.826Z,7.20
2022-08-03T06:52:38.127Z,6.40
2022-08-03T06:53:19.796Z,12.81
2022-08-03T06:53:46.818Z,12.01
2022-08-03T06:54:22.452Z,12.01
2022-08-03T06:54:57.650Z,14.41
2022-08-03T06:55:32.751Z,12.80
2022-08-03T06:56:07.875Z,8.80
2022-08-03T06:56:43.180Z,9.60
2022-08-03T06:57:18.388Z,8.00
2022-08-03T06:57:53.762Z,6.40
2022-08-03T06:58:28.954Z,11.21
2022-08-03T06:59:04.064Z,12.81
2022-08-03T07:00:08.177Z,7.20
2022-08-03T07:00:14.508Z,9.60
2022-08-03T07:00:49.734Z,9.60
2022-08-03T07:01:24.986Z,9.60
2022-08-03T07:02:00.058Z,7.20
2022-08-03T07:02:35.245Z,11.21
2022-08-03T07:03:10.682Z,10.40
2022-08-03T07:03:52.070Z,8.00
2022-08-03T07:04:21.118Z,7.20
2022-08-03T07:04:56.375Z,8.80
2022-08-03T07:05:31.377Z,6.40
2022-08-03T07:06:06.935Z,8.00
2022-08-03T07:06:42.449Z,5.60
2022-08-03T07:07:17.891Z,8.00
2022-08-03T07:07:53.220Z,9.60
2022-08-03T07:08:33.452Z,9.60
2022-08-03T07:09:04.414Z,7.20
2022-08-03T07:09:39.743Z,8.00
2022-08-03T07:10:15.095Z,7.20
2022-08-03T07:10:50.401Z,11.21
2022-08-03T07:11:25.821Z,6.40
2022-08-03T07:12:01.141Z,5.60
2022-08-03T07:12:36.361Z,10.40
2022-08-03T07:13:11.676Z,11.21
2022-08-03T07:13:46.894Z,12.01
2022-08-03T07:14:22.304Z,6.40
2022-08-03T07:15:00.642Z,4.80
2022-08-03T07:15:54.837Z,4.80
2022-08-03T07:16:07.663Z,6.40
2022-08-03T07:16:43.074Z,8.00
2022-08-03T07:17:18.592Z,7.20
2022-08-03T07:17:54.008Z,5.60
2022-08-03T07:18:30.005Z,11.21
2022-08-03T07:19:04.463Z,9.60
2022-08-03T07:19:39.793Z,7.20
2022-08-03T07:20:15.121Z,8.80
2022-08-03T07:20:50.662Z,4.00
2022-08-03T07:21:26.268Z,6.40
2022-08-03T07:22:02.169Z,4.80
2022-08-03T07:22:36.619Z,8.00
2022-08-03T07:23:19.108Z,9.60
2022-08-03T07:23:47.458Z,8.80
2022-08-03T07:24:22.560Z,8.81
2022-08-03T07:24:57.819Z,8.00
2022-08-03T07:25:33.135Z,8.00
2022-08-03T07:26:08.442Z,5.60
2022-08-03T07:26:43.769Z,8.00
2022-08-03T07:27:18.880Z,4.00
2022-08-03T07:27:54.315Z,6.40
2022-08-03T07:28:29.623Z,8.80
2022-08-03T07:29:14.994Z,6.40
2022-08-03T07:29:40.153Z,9.60
2022-08-03T07:30:15.395Z,10.40
2022-08-03T07:30:50.564Z,15.21
2022-08-03T07:31:25.976Z,12.01
2022-08-03T07:32:01.298Z,8.80
2022-08-03T07:32:36.506Z,6.40
2022-08-03T07:33:11.619Z,9.60
2022-08-03T07:33:46.843Z,11.21
2022-08-03T07:34:22.175Z,12.81
2022-08-03T07:35:00.867Z,17.61
2022-08-03T07:35:33.038Z,12.81
2022-08-03T07:36:08.356Z,8.80
2022-08-03T07:36:43.383Z,6.40
2022-08-03T07:37:18.500Z,4.00
2022-08-03T07:37:54.940Z,10.40
2022-08-03T07:38:29.153Z,5.60
2022-08-03T07:39:17.510Z,6.40
2022-08-03T07:39:39.986Z,8.00
2022-08-03T07:40:15.121Z,3.20
2022-08-03T07:40:50.533Z,4.00
2022-08-03T07:41:25.750Z,4.80
2022-08-03T07:42:01.086Z,7.20
2022-08-03T07:42:36.097Z,6.40
2022-08-03T07:43:11.336Z,5.60
2022-08-03T07:43:46.825Z,2.40
2022-08-03T07:44:22.187Z,4.00
2022-08-03T07:44:57.452Z,10.40
2022-08-03T07:45:32.791Z,8.00
2022-08-03T07:46:08.119Z,5.60
2022-08-03T07:46:43.221Z,8.00
2022-08-03T07:47:22.726Z,5.60
2022-08-03T07:47:54.098Z,5.60
2022-08-03T07:48:29.010Z,8.00